sensor_id;sensor_type;location;lat;lon;timestamp;temperature;humidity
10419;DHT22;5256;48.728;9.140;2023-01-25T00:01:21;0.90;99.90
10419;DHT22;5256;48.728;9.140;2023-01-25T00:03:47;0.90;99.90
10419;DHT22;5256;48.728;9.140;2023-01-25T00:06:12;0.90;99.90
10419;DHT22;5256;48.728;9.140;2023-01-25T00:08:38;0.90;99.90
10419;DHT22;5256;48.728;9.140;2023-01-25T00:11:03;0.90;99.90
10419;DHT22;5256;48.728;9.140;2023-01-25T00:13:29;0.90;99.90
10419;DHT22;5256;48.728;9.140;2023-01-25T00:16:04;0.90;99.90
10419;DHT22;5256;48.728;9.140;2023-01-25T00:18:30;1.00;99.90
10419;DHT22;5256;48.728;9.140;2023-01-25T00:20:55;1.00;99.90
10419;DHT22;5256;48.728;9.140;2023-01-25T00:23:21;1.00;99.90
10419;DHT22;5256;48.728;9.140;2023-01-25T00:25:46;1.00;99.90
10419;DHT22;5256;48.728;9.140;2023-01-25T00:28:12;1.00;99.90
10419;DHT22;5256;48.728;9.140;2023-01-25T00:30:37;1.00;99.90
10419;DHT22;5256;48.728;9.140;2023-01-25T00:35:43;0.90;99.90
10419;DHT22;5256;48.728;9.140;2023-01-25T00:38:26;0.90;99.90
10419;DHT22;5256;48.728;9.140;2023-01-25T00:40:53;0.90;99.90
10419;DHT22;5256;48.728;9.140;2023-01-25T00:43:18;0.90;99.90
10419;DHT22;5256;48.728;9.140;2023-01-25T00:45:44;0.90;99.90
10419;DHT22;5256;48.728;9.140;2023-01-25T00:48:10;0.90;99.90
10419;DHT22;5256;48.728;9.140;2023-01-25T00:50:36;0.90;99.90
10419;DHT22;5256;48.728;9.140;2023-01-25T00:53:02;0.90;99.90
10419;DHT22;5256;48.728;9.140;2023-01-25T00:55:28;0.90;99.90
10419;DHT22;5256;48.728;9.140;2023-01-25T00:57:53;0.90;99.90
10419;DHT22;5256;48.728;9.140;2023-01-25T01:00:19;0.90;99.90
10419;DHT22;5256;48.728;9.140;2023-01-25T01:02:45;0.90;99.90
10419;DHT22;5256;48.728;9.140;2023-01-25T01:05:10;0.90;99.90
10419;DHT22;5256;48.728;9.140;2023-01-25T01:07:36;0.90;99.90
10419;DHT22;5256;48.728;9.140;2023-01-25T01:10:02;0.90;99.90
10419;DHT22;5256;48.728;9.140;2023-01-25T01:12:28;0.90;99.90
10419;DHT22;5256;48.728;9.140;2023-01-25T01:14:53;0.90;99.90
10419;DHT22;5256;48.728;9.140;2023-01-25T01:17:19;0.90;99.90
10419;DHT22;5256;48.728;9.140;2023-01-25T01:19:44;0.90;99.90
10419;DHT22;5256;48.728;9.140;2023-01-25T01:22:10;0.90;99.90
10419;DHT22;5256;48.728;9.140;2023-01-25T01:24:35;0.90;99.90
10419;DHT22;5256;48.728;9.140;2023-01-25T01:27:01;0.90;99.90
10419;DHT22;5256;48.728;9.140;2023-01-25T01:29:26;0.90;99.90
10419;DHT22;5256;48.728;9.140;2023-01-25T01:31:52;0.90;99.90
10419;DHT22;5256;48.728;9.140;2023-01-25T01:34:18;0.90;99.90
10419;DHT22;5256;48.728;9.140;2023-01-25T01:36:44;0.90;99.90
10419;DHT22;5256;48.728;9.140;2023-01-25T01:39:10;0.90;99.90
10419;DHT22;5256;48.728;9.140;2023-01-25T01:41:36;1.00;99.90
10419;DHT22;5256;48.728;9.140;2023-01-25T01:44:03;1.00;99.90
10419;DHT22;5256;48.728;9.140;2023-01-25T01:46:37;0.90;99.90
10419;DHT22;5256;48.728;9.140;2023-01-25T01:54:13;0.90;99.90
10419;DHT22;5256;48.728;9.140;2023-01-25T01:56:48;1.00;99.90
10419;DHT22;5256;48.728;9.140;2023-01-25T01:59:16;0.90;99.90
10419;DHT22;5256;48.728;9.140;2023-01-25T02:01:43;0.90;99.90
10419;DHT22;5256;48.728;9.140;2023-01-25T02:04:09;1.00;99.90
10419;DHT22;5256;48.728;9.140;2023-01-25T02:09:54;1.00;99.90
10419;DHT22;5256;48.728;9.140;2023-01-25T02:12:20;0.90;99.90
10419;DHT22;5256;48.728;9.140;2023-01-25T02:14:49;0.90;99.90
10419;DHT22;5256;48.728;9.140;2023-01-25T02:17:20;0.90;99.90
10419;DHT22;5256;48.728;9.140;2023-01-25T02:22:25;0.90;99.90
10419;DHT22;5256;48.728;9.140;2023-01-25T02:25:14;0.90;99.90
10419;DHT22;5256;48.728;9.140;2023-01-25T02:27:45;0.90;99.90
10419;DHT22;5256;48.728;9.140;2023-01-25T02:30:13;0.90;99.90
10419;DHT22;5256;48.728;9.140;2023-01-25T02:32:39;0.90;99.90
10419;DHT22;5256;48.728;9.140;2023-01-25T02:35:05;0.90;99.90
10419;DHT22;5256;48.728;9.140;2023-01-25T02:37:30;0.90;99.90
10419;DHT22;5256;48.728;9.140;2023-01-25T02:39:56;0.90;99.90
10419;DHT22;5256;48.728;9.140;2023-01-25T02:42:22;0.80;99.90
10419;DHT22;5256;48.728;9.140;2023-01-25T02:44:49;0.90;99.90
10419;DHT22;5256;48.728;9.140;2023-01-25T02:47:14;0.90;99.90
10419;DHT22;5256;48.728;9.140;2023-01-25T02:49:40;0.90;99.90
10419;DHT22;5256;48.728;9.140;2023-01-25T02:52:05;0.90;99.90
10419;DHT22;5256;48.728;9.140;2023-01-25T02:54:31;0.90;99.90
10419;DHT22;5256;48.728;9.140;2023-01-25T02:56:57;0.90;99.90
10419;DHT22;5256;48.728;9.140;2023-01-25T02:59:22;0.90;99.90
10419;DHT22;5256;48.728;9.140;2023-01-25T03:01:48;0.90;99.90
10419;DHT22;5256;48.728;9.140;2023-01-25T03:04:14;0.90;99.90
10419;DHT22;5256;48.728;9.140;2023-01-25T03:06:40;0.90;99.90
10419;DHT22;5256;48.728;9.140;2023-01-25T03:09:08;0.90;99.90
10419;DHT22;5256;48.728;9.140;2023-01-25T03:11:34;0.90;99.90
10419;DHT22;5256;48.728;9.140;2023-01-25T03:14:00;0.90;99.90
10419;DHT22;5256;48.728;9.140;2023-01-25T03:16:26;0.90;99.90
10419;DHT22;5256;48.728;9.140;2023-01-25T03:18:53;0.90;99.90
10419;DHT22;5256;48.728;9.140;2023-01-25T03:21:20;0.90;99.90
10419;DHT22;5256;48.728;9.140;2023-01-25T03:23:47;0.90;99.90
10419;DHT22;5256;48.728;9.140;2023-01-25T03:26:18;0.90;99.90
10419;DHT22;5256;48.728;9.140;2023-01-25T03:28:45;0.90;99.90
10419;DHT22;5256;48.728;9.140;2023-01-25T03:31:13;1.00;99.90
10419;DHT22;5256;48.728;9.140;2023-01-25T03:33:40;1.00;99.90
10419;DHT22;5256;48.728;9.140;2023-01-25T03:36:06;1.00;99.90
10419;DHT22;5256;48.728;9.140;2023-01-25T03:38:32;1.00;99.90
10419;DHT22;5256;48.728;9.140;2023-01-25T03:40:57;1.00;99.90
10419;DHT22;5256;48.728;9.140;2023-01-25T03:43:24;1.10;99.90
10419;DHT22;5256;48.728;9.140;2023-01-25T03:45:54;1.00;99.90
10419;DHT22;5256;48.728;9.140;2023-01-25T03:48:21;1.00;99.90
10419;DHT22;5256;48.728;9.140;2023-01-25T03:50:57;1.00;99.90
10419;DHT22;5256;48.728;9.140;2023-01-25T03:53:24;1.00;99.90
10419;DHT22;5256;48.728;9.140;2023-01-25T03:56:02;1.00;99.90
10419;DHT22;5256;48.728;9.140;2023-01-25T03:58:29;1.00;99.90
10419;DHT22;5256;48.728;9.140;2023-01-25T04:00:57;1.00;99.90
10419;DHT22;5256;48.728;9.140;2023-01-25T04:03:23;1.00;99.90
10419;DHT22;5256;48.728;9.140;2023-01-25T04:05:50;1.00;99.90
10419;DHT22;5256;48.728;9.140;2023-01-25T04:08:15;1.00;99.90
10419;DHT22;5256;48.728;9.140;2023-01-25T04:10:41;1.00;99.90
10419;DHT22;5256;48.728;9.140;2023-01-25T04:13:07;1.00;99.90
10419;DHT22;5256;48.728;9.140;2023-01-25T04:15:32;1.00;99.90
10419;DHT22;5256;48.728;9.140;2023-01-25T04:17:58;1.00;99.90
10419;DHT22;5256;48.728;9.140;2023-01-25T04:20:23;1.00;99.90
10419;DHT22;5256;48.728;9.140;2023-01-25T04:22:49;1.10;99.90
10419;DHT22;5256;48.728;9.140;2023-01-25T04:25:14;1.10;99.90
10419;DHT22;5256;48.728;9.140;2023-01-25T04:27:40;1.10;99.90
10419;DHT22;5256;48.728;9.140;2023-01-25T04:30:06;1.10;99.90
10419;DHT22;5256;48.728;9.140;2023-01-25T04:32:34;1.10;99.90
10419;DHT22;5256;48.728;9.140;2023-01-25T04:35:00;1.10;99.90
10419;DHT22;5256;48.728;9.140;2023-01-25T04:37:25;1.10;99.90
10419;DHT22;5256;48.728;9.140;2023-01-25T04:39:51;1.00;99.90
10419;DHT22;5256;48.728;9.140;2023-01-25T04:42:16;1.10;99.90
10419;DHT22;5256;48.728;9.140;2023-01-25T04:44:42;1.00;99.90
10419;DHT22;5256;48.728;9.140;2023-01-25T04:47:07;1.00;99.90
10419;DHT22;5256;48.728;9.140;2023-01-25T04:49:33;1.00;99.90
10419;DHT22;5256;48.728;9.140;2023-01-25T04:51:59;1.00;99.90
10419;DHT22;5256;48.728;9.140;2023-01-25T04:54:24;1.00;99.90
10419;DHT22;5256;48.728;9.140;2023-01-25T04:56:50;1.00;99.90
10419;DHT22;5256;48.728;9.140;2023-01-25T04:59:15;1.00;99.90
10419;DHT22;5256;48.728;9.140;2023-01-25T05:01:41;1.00;99.90
10419;DHT22;5256;48.728;9.140;2023-01-25T05:04:06;1.00;99.90
10419;DHT22;5256;48.728;9.140;2023-01-25T05:06:32;1.00;99.90
10419;DHT22;5256;48.728;9.140;2023-01-25T05:08:58;1.00;99.90
10419;DHT22;5256;48.728;9.140;2023-01-25T05:11:23;1.00;99.90
10419;DHT22;5256;48.728;9.140;2023-01-25T05:13:49;1.00;99.90
10419;DHT22;5256;48.728;9.140;2023-01-25T05:16:16;1.00;99.90
10419;DHT22;5256;48.728;9.140;2023-01-25T05:18:42;1.00;99.90
10419;DHT22;5256;48.728;9.140;2023-01-25T05:21:07;1.00;99.90
10419;DHT22;5256;48.728;9.140;2023-01-25T05:23:56;1.00;99.90
10419;DHT22;5256;48.728;9.140;2023-01-25T05:26:21;1.00;99.90
10419;DHT22;5256;48.728;9.140;2023-01-25T05:29:05;1.00;99.90
10419;DHT22;5256;48.728;9.140;2023-01-25T05:31:30;1.00;99.90
10419;DHT22;5256;48.728;9.140;2023-01-25T05:33:56;1.00;99.90
10419;DHT22;5256;48.728;9.140;2023-01-25T05:36:21;1.00;99.90
10419;DHT22;5256;48.728;9.140;2023-01-25T05:38:47;1.00;99.90
10419;DHT22;5256;48.728;9.140;2023-01-25T05:41:13;1.00;99.90
10419;DHT22;5256;48.728;9.140;2023-01-25T05:43:38;1.00;99.90
10419;DHT22;5256;48.728;9.140;2023-01-25T05:46:04;1.00;99.90
10419;DHT22;5256;48.728;9.140;2023-01-25T05:48:30;1.00;99.90
10419;DHT22;5256;48.728;9.140;2023-01-25T05:50:58;1.00;99.90
10419;DHT22;5256;48.728;9.140;2023-01-25T05:53:27;1.00;99.90
10419;DHT22;5256;48.728;9.140;2023-01-25T05:55:53;1.00;99.90
10419;DHT22;5256;48.728;9.140;2023-01-25T05:58:18;1.00;99.90
10419;DHT22;5256;48.728;9.140;2023-01-25T06:00:45;1.00;99.90
10419;DHT22;5256;48.728;9.140;2023-01-25T06:03:11;0.90;99.90
10419;DHT22;5256;48.728;9.140;2023-01-25T06:05:36;1.00;99.90
10419;DHT22;5256;48.728;9.140;2023-01-25T06:08:02;1.00;99.90
10419;DHT22;5256;48.728;9.140;2023-01-25T06:10:27;1.00;99.90
10419;DHT22;5256;48.728;9.140;2023-01-25T06:12:57;1.00;99.90
10419;DHT22;5256;48.728;9.140;2023-01-25T06:15:23;1.00;99.90
10419;DHT22;5256;48.728;9.140;2023-01-25T06:17:53;1.00;99.90
10419;DHT22;5256;48.728;9.140;2023-01-25T06:20:19;1.00;99.90
10419;DHT22;5256;48.728;9.140;2023-01-25T06:22:49;1.00;99.90
10419;DHT22;5256;48.728;9.140;2023-01-25T06:25:15;1.00;99.90
10419;DHT22;5256;48.728;9.140;2023-01-25T06:27:41;1.00;99.90
10419;DHT22;5256;48.728;9.140;2023-01-25T06:30:07;1.00;99.90
10419;DHT22;5256;48.728;9.140;2023-01-25T06:32:33;1.00;99.90
10419;DHT22;5256;48.728;9.140;2023-01-25T06:34:58;1.00;99.90
10419;DHT22;5256;48.728;9.140;2023-01-25T06:37:24;0.90;99.90
10419;DHT22;5256;48.728;9.140;2023-01-25T06:39:49;0.90;99.90
10419;DHT22;5256;48.728;9.140;2023-01-25T06:42:15;1.00;99.90
10419;DHT22;5256;48.728;9.140;2023-01-25T06:44:42;0.90;99.90
10419;DHT22;5256;48.728;9.140;2023-01-25T06:47:09;0.90;99.90
10419;DHT22;5256;48.728;9.140;2023-01-25T06:49:35;1.00;99.90
10419;DHT22;5256;48.728;9.140;2023-01-25T06:52:01;1.00;99.90
10419;DHT22;5256;48.728;9.140;2023-01-25T06:54:27;1.00;99.90
10419;DHT22;5256;48.728;9.140;2023-01-25T06:56:52;1.00;99.90
10419;DHT22;5256;48.728;9.140;2023-01-25T06:59:18;1.00;99.90
10419;DHT22;5256;48.728;9.140;2023-01-25T07:01:43;1.00;99.90
10419;DHT22;5256;48.728;9.140;2023-01-25T07:04:10;0.90;99.90
10419;DHT22;5256;48.728;9.140;2023-01-25T07:06:39;0.90;99.90
10419;DHT22;5256;48.728;9.140;2023-01-25T07:09:07;0.90;99.90
10419;DHT22;5256;48.728;9.140;2023-01-25T07:11:33;1.00;99.90
10419;DHT22;5256;48.728;9.140;2023-01-25T07:13:59;1.00;99.90
10419;DHT22;5256;48.728;9.140;2023-01-25T07:16:25;1.00;99.90
10419;DHT22;5256;48.728;9.140;2023-01-25T07:18:51;1.00;99.90
10419;DHT22;5256;48.728;9.140;2023-01-25T07:21:21;0.90;99.90
10419;DHT22;5256;48.728;9.140;2023-01-25T07:23:50;0.90;99.90
10419;DHT22;5256;48.728;9.140;2023-01-25T07:26:24;0.90;99.90
10419;DHT22;5256;48.728;9.140;2023-01-25T07:28:50;0.90;99.90
10419;DHT22;5256;48.728;9.140;2023-01-25T07:31:17;1.00;99.90
10419;DHT22;5256;48.728;9.140;2023-01-25T07:33:47;1.10;99.90
10419;DHT22;5256;48.728;9.140;2023-01-25T07:36:13;1.10;99.90
10419;DHT22;5256;48.728;9.140;2023-01-25T07:38:39;1.10;99.90
10419;DHT22;5256;48.728;9.140;2023-01-25T07:41:04;1.00;99.90
10419;DHT22;5256;48.728;9.140;2023-01-25T07:43:30;1.10;99.90
10419;DHT22;5256;48.728;9.140;2023-01-25T07:46:05;1.10;99.90
10419;DHT22;5256;48.728;9.140;2023-01-25T07:48:31;1.10;99.90
10419;DHT22;5256;48.728;9.140;2023-01-25T07:51:02;1.00;99.90
10419;DHT22;5256;48.728;9.140;2023-01-25T07:53:47;1.00;99.90
10419;DHT22;5256;48.728;9.140;2023-01-25T07:56:13;1.00;99.90
10419;DHT22;5256;48.728;9.140;2023-01-25T07:58:38;1.10;99.90
10419;DHT22;5256;48.728;9.140;2023-01-25T08:01:11;1.10;99.90
10419;DHT22;5256;48.728;9.140;2023-01-25T08:03:37;1.20;99.90
10419;DHT22;5256;48.728;9.140;2023-01-25T08:06:03;1.10;99.90
10419;DHT22;5256;48.728;9.140;2023-01-25T08:08:33;1.10;99.90
10419;DHT22;5256;48.728;9.140;2023-01-25T08:11:14;1.10;99.90
10419;DHT22;5256;48.728;9.140;2023-01-25T08:13:41;1.10;99.90
10419;DHT22;5256;48.728;9.140;2023-01-25T08:16:11;1.20;99.90
10419;DHT22;5256;48.728;9.140;2023-01-25T08:18:36;1.10;99.90
10419;DHT22;5256;48.728;9.140;2023-01-25T08:21:02;1.20;99.90
10419;DHT22;5256;48.728;9.140;2023-01-25T08:23:28;1.20;99.90
10419;DHT22;5256;48.728;9.140;2023-01-25T08:25:53;1.20;99.90
10419;DHT22;5256;48.728;9.140;2023-01-25T08:28:20;1.20;99.90
10419;DHT22;5256;48.728;9.140;2023-01-25T08:30:47;1.20;99.90
10419;DHT22;5256;48.728;9.140;2023-01-25T08:33:12;1.30;99.90
10419;DHT22;5256;48.728;9.140;2023-01-25T08:35:38;1.30;99.90
10419;DHT22;5256;48.728;9.140;2023-01-25T08:38:03;1.30;99.90
10419;DHT22;5256;48.728;9.140;2023-01-25T08:40:29;1.30;99.90
10419;DHT22;5256;48.728;9.140;2023-01-25T08:42:55;1.30;99.90
10419;DHT22;5256;48.728;9.140;2023-01-25T08:45:20;1.20;99.90
10419;DHT22;5256;48.728;9.140;2023-01-25T08:47:46;1.20;99.90
10419;DHT22;5256;48.728;9.140;2023-01-25T08:50:11;1.20;99.90
10419;DHT22;5256;48.728;9.140;2023-01-25T08:52:37;1.10;99.90
10419;DHT22;5256;48.728;9.140;2023-01-25T08:55:02;1.10;99.90
10419;DHT22;5256;48.728;9.140;2023-01-25T08:57:29;1.20;99.90
10419;DHT22;5256;48.728;9.140;2023-01-25T08:59:55;1.10;99.90
10419;DHT22;5256;48.728;9.140;2023-01-25T09:02:20;1.10;99.90
10419;DHT22;5256;48.728;9.140;2023-01-25T09:04:46;1.20;99.90
10419;DHT22;5256;48.728;9.140;2023-01-25T09:07:11;1.10;99.90
10419;DHT22;5256;48.728;9.140;2023-01-25T09:09:37;1.20;99.90
10419;DHT22;5256;48.728;9.140;2023-01-25T09:12:03;1.20;99.90
10419;DHT22;5256;48.728;9.140;2023-01-25T09:14:28;1.20;99.90
10419;DHT22;5256;48.728;9.140;2023-01-25T09:16:54;1.20;99.90
10419;DHT22;5256;48.728;9.140;2023-01-25T09:19:19;1.20;99.90
10419;DHT22;5256;48.728;9.140;2023-01-25T09:21:45;1.20;99.90
10419;DHT22;5256;48.728;9.140;2023-01-25T09:24:12;1.30;99.90
10419;DHT22;5256;48.728;9.140;2023-01-25T09:26:40;1.30;99.90
10419;DHT22;5256;48.728;9.140;2023-01-25T09:29:06;1.30;99.90
10419;DHT22;5256;48.728;9.140;2023-01-25T09:31:33;1.20;99.90
10419;DHT22;5256;48.728;9.140;2023-01-25T09:33:58;1.30;99.90
10419;DHT22;5256;48.728;9.140;2023-01-25T09:36:24;1.40;99.90
10419;DHT22;5256;48.728;9.140;2023-01-25T09:38:50;1.30;99.90
10419;DHT22;5256;48.728;9.140;2023-01-25T09:46:53;1.20;99.90
10419;DHT22;5256;48.728;9.140;2023-01-25T09:54:52;1.40;99.90
10419;DHT22;5256;48.728;9.140;2023-01-25T09:57:36;1.30;99.90
10419;DHT22;5256;48.728;9.140;2023-01-25T10:00:12;1.20;99.90
10419;DHT22;5256;48.728;9.140;2023-01-25T10:02:53;1.20;99.90
10419;DHT22;5256;48.728;9.140;2023-01-25T10:05:25;1.20;99.90
10419;DHT22;5256;48.728;9.140;2023-01-25T10:08:02;1.20;99.90
10419;DHT22;5256;48.728;9.140;2023-01-25T10:10:41;1.20;99.90
10419;DHT22;5256;48.728;9.140;2023-01-25T10:13:15;1.10;99.90
10419;DHT22;5256;48.728;9.140;2023-01-25T10:15:51;1.20;99.90
10419;DHT22;5256;48.728;9.140;2023-01-25T10:18:39;1.20;99.90
10419;DHT22;5256;48.728;9.140;2023-01-25T10:21:12;1.20;99.90
10419;DHT22;5256;48.728;9.140;2023-01-25T10:26:24;1.20;99.90
10419;DHT22;5256;48.728;9.140;2023-01-25T10:29:01;1.20;99.90
10419;DHT22;5256;48.728;9.140;2023-01-25T10:31:40;1.30;99.90
10419;DHT22;5256;48.728;9.140;2023-01-25T10:34:35;1.40;99.90
10419;DHT22;5256;48.728;9.140;2023-01-25T10:37:12;1.30;99.90
10419;DHT22;5256;48.728;9.140;2023-01-25T10:39:41;1.30;99.90
10419;DHT22;5256;48.728;9.140;2023-01-25T10:42:11;1.30;99.90
10419;DHT22;5256;48.728;9.140;2023-01-25T10:44:39;1.20;99.90
10419;DHT22;5256;48.728;9.140;2023-01-25T10:47:24;1.40;99.90
10419;DHT22;5256;48.728;9.140;2023-01-25T10:49:53;1.40;99.90
10419;DHT22;5256;48.728;9.140;2023-01-25T10:52:25;1.40;99.90
10419;DHT22;5256;48.728;9.140;2023-01-25T10:55:13;1.40;99.90
10419;DHT22;5256;48.728;9.140;2023-01-25T10:57:47;1.40;99.90
10419;DHT22;5256;48.728;9.140;2023-01-25T11:00:36;1.50;99.90
10419;DHT22;5256;48.728;9.140;2023-01-25T11:03:02;1.50;99.90
10419;DHT22;5256;48.728;9.140;2023-01-25T11:05:32;1.50;99.90
10419;DHT22;5256;48.728;9.140;2023-01-25T11:08:16;1.50;99.90
10419;DHT22;5256;48.728;9.140;2023-01-25T11:10:44;1.50;99.90
10419;DHT22;5256;48.728;9.140;2023-01-25T11:18:51;1.50;99.90
10419;DHT22;5256;48.728;9.140;2023-01-25T11:21:19;1.60;99.90
10419;DHT22;5256;48.728;9.140;2023-01-25T11:26:33;1.60;99.90
10419;DHT22;5256;48.728;9.140;2023-01-25T11:29:19;1.60;99.90
10419;DHT22;5256;48.728;9.140;2023-01-25T11:31:55;1.50;99.90
10419;DHT22;5256;48.728;9.140;2023-01-25T11:34:27;1.50;99.90
10419;DHT22;5256;48.728;9.140;2023-01-25T11:40:04;1.60;99.90
10419;DHT22;5256;48.728;9.140;2023-01-25T11:48:02;1.30;99.90
10419;DHT22;5256;48.728;9.140;2023-01-25T11:50:40;1.40;99.90
10419;DHT22;5256;48.728;9.140;2023-01-25T11:59:01;1.40;99.90
10419;DHT22;5256;48.728;9.140;2023-01-25T12:21:04;1.20;99.90
10419;DHT22;5256;48.728;9.140;2023-01-25T12:26:15;1.10;99.90
10419;DHT22;5256;48.728;9.140;2023-01-25T12:28:53;1.10;99.90
10419;DHT22;5256;48.728;9.140;2023-01-25T12:31:35;1.00;99.90
10419;DHT22;5256;48.728;9.140;2023-01-25T12:34:18;1.10;99.90
10419;DHT22;5256;48.728;9.140;2023-01-25T12:36:47;1.20;99.90
10419;DHT22;5256;48.728;9.140;2023-01-25T12:39:22;1.10;99.90
10419;DHT22;5256;48.728;9.140;2023-01-25T12:42:04;1.20;99.90
10419;DHT22;5256;48.728;9.140;2023-01-25T12:44:40;1.30;99.90
10419;DHT22;5256;48.728;9.140;2023-01-25T12:47:31;1.30;99.90
10419;DHT22;5256;48.728;9.140;2023-01-25T12:50:19;1.30;99.90
10419;DHT22;5256;48.728;9.140;2023-01-25T12:52:57;1.30;99.90
10419;DHT22;5256;48.728;9.140;2023-01-25T12:55:23;1.20;99.90
10419;DHT22;5256;48.728;9.140;2023-01-25T13:05:55;1.30;99.90
10419;DHT22;5256;48.728;9.140;2023-01-25T13:13:32;1.10;99.90
10419;DHT22;5256;48.728;9.140;2023-01-25T13:18:53;1.10;99.90
10419;DHT22;5256;48.728;9.140;2023-01-25T13:21:38;1.20;99.90
10419;DHT22;5256;48.728;9.140;2023-01-25T13:24:19;1.10;99.90
10419;DHT22;5256;48.728;9.140;2023-01-25T13:26:48;1.00;99.90
10419;DHT22;5256;48.728;9.140;2023-01-25T13:37:32;0.80;99.90
10419;DHT22;5256;48.728;9.140;2023-01-25T13:43:01;0.90;99.90
10419;DHT22;5256;48.728;9.140;2023-01-25T13:45:29;0.90;99.90
10419;DHT22;5256;48.728;9.140;2023-01-25T13:50:35;1.00;99.90
10419;DHT22;5256;48.728;9.140;2023-01-25T13:55:50;1.20;99.90
10419;DHT22;5256;48.728;9.140;2023-01-25T13:58:22;1.30;99.90
10419;DHT22;5256;48.728;9.140;2023-01-25T14:00:56;1.30;99.90
10419;DHT22;5256;48.728;9.140;2023-01-25T14:03:27;1.30;99.90
10419;DHT22;5256;48.728;9.140;2023-01-25T14:05:56;1.30;99.90
10419;DHT22;5256;48.728;9.140;2023-01-25T14:08:23;1.20;99.90
10419;DHT22;5256;48.728;9.140;2023-01-25T14:10:50;1.10;99.90
10419;DHT22;5256;48.728;9.140;2023-01-25T14:13:17;1.10;99.90
10419;DHT22;5256;48.728;9.140;2023-01-25T14:15:59;1.00;99.90
10419;DHT22;5256;48.728;9.140;2023-01-25T14:18:33;0.90;99.90
10419;DHT22;5256;48.728;9.140;2023-01-25T14:21:16;1.00;99.90
10419;DHT22;5256;48.728;9.140;2023-01-25T14:23:42;1.00;99.90
10419;DHT22;5256;48.728;9.140;2023-01-25T14:26:25;1.10;99.90
10419;DHT22;5256;48.728;9.140;2023-01-25T14:28:54;1.10;99.90
10419;DHT22;5256;48.728;9.140;2023-01-25T14:31:34;1.00;99.90
10419;DHT22;5256;48.728;9.140;2023-01-25T14:34:00;0.90;99.90
10419;DHT22;5256;48.728;9.140;2023-01-25T14:36:29;1.10;99.90
10419;DHT22;5256;48.728;9.140;2023-01-25T14:38:55;1.00;99.90
10419;DHT22;5256;48.728;9.140;2023-01-25T14:43:55;1.10;99.90
10419;DHT22;5256;48.728;9.140;2023-01-25T14:49:15;1.00;99.90
10419;DHT22;5256;48.728;9.140;2023-01-25T14:51:51;0.90;99.90
10419;DHT22;5256;48.728;9.140;2023-01-25T14:54:21;0.80;99.90
10419;DHT22;5256;48.728;9.140;2023-01-25T14:56:49;0.80;99.90
10419;DHT22;5256;48.728;9.140;2023-01-25T14:59:26;0.80;99.90
10419;DHT22;5256;48.728;9.140;2023-01-25T15:01:55;0.80;99.90
10419;DHT22;5256;48.728;9.140;2023-01-25T15:04:22;0.80;99.90
10419;DHT22;5256;48.728;9.140;2023-01-25T15:06:50;0.70;99.90
10419;DHT22;5256;48.728;9.140;2023-01-25T15:09:37;0.70;99.90
10419;DHT22;5256;48.728;9.140;2023-01-25T15:14:48;0.70;99.90
10419;DHT22;5256;48.728;9.140;2023-01-25T15:20:01;0.60;99.90
10419;DHT22;5256;48.728;9.140;2023-01-25T15:22:27;0.70;99.90
10419;DHT22;5256;48.728;9.140;2023-01-25T15:24:52;0.80;99.90
10419;DHT22;5256;48.728;9.140;2023-01-25T15:27:18;0.80;99.90
10419;DHT22;5256;48.728;9.140;2023-01-25T15:29:43;0.70;99.90
10419;DHT22;5256;48.728;9.140;2023-01-25T15:32:19;0.70;99.90
10419;DHT22;5256;48.728;9.140;2023-01-25T15:34:46;0.70;99.90
10419;DHT22;5256;48.728;9.140;2023-01-25T15:37:12;0.80;99.90
10419;DHT22;5256;48.728;9.140;2023-01-25T15:39:38;0.70;99.90
10419;DHT22;5256;48.728;9.140;2023-01-25T15:42:04;0.70;99.90
10419;DHT22;5256;48.728;9.140;2023-01-25T15:44:30;0.70;99.90
10419;DHT22;5256;48.728;9.140;2023-01-25T15:46:56;0.60;99.90
10419;DHT22;5256;48.728;9.140;2023-01-25T15:49:24;0.60;99.90
10419;DHT22;5256;48.728;9.140;2023-01-25T15:51:51;0.70;99.90
10419;DHT22;5256;48.728;9.140;2023-01-25T15:54:16;0.60;99.90
10419;DHT22;5256;48.728;9.140;2023-01-25T15:56:42;0.60;99.90
10419;DHT22;5256;48.728;9.140;2023-01-25T15:59:14;0.60;99.90
10419;DHT22;5256;48.728;9.140;2023-01-25T16:01:41;0.50;99.90
10419;DHT22;5256;48.728;9.140;2023-01-25T16:04:09;0.50;99.90
10419;DHT22;5256;48.728;9.140;2023-01-25T16:06:49;0.60;99.90
10419;DHT22;5256;48.728;9.140;2023-01-25T16:09:26;0.60;99.90
10419;DHT22;5256;48.728;9.140;2023-01-25T16:12:01;0.50;99.90
10419;DHT22;5256;48.728;9.140;2023-01-25T16:14:28;0.40;99.90
10419;DHT22;5256;48.728;9.140;2023-01-25T16:16:57;0.40;99.90
10419;DHT22;5256;48.728;9.140;2023-01-25T16:19:23;0.50;99.90
10419;DHT22;5256;48.728;9.140;2023-01-25T16:21:50;0.40;99.90
10419;DHT22;5256;48.728;9.140;2023-01-25T16:24:16;0.40;99.90
10419;DHT22;5256;48.728;9.140;2023-01-25T16:26:48;0.40;99.90
10419;DHT22;5256;48.728;9.140;2023-01-25T16:29:14;0.50;99.90
10419;DHT22;5256;48.728;9.140;2023-01-25T16:31:40;0.60;99.90
10419;DHT22;5256;48.728;9.140;2023-01-25T16:34:06;0.60;99.90
10419;DHT22;5256;48.728;9.140;2023-01-25T16:36:33;0.50;99.90
10419;DHT22;5256;48.728;9.140;2023-01-25T16:39:15;0.40;99.90
10419;DHT22;5256;48.728;9.140;2023-01-25T16:41:43;0.50;99.90
10419;DHT22;5256;48.728;9.140;2023-01-25T16:44:09;0.50;99.90
10419;DHT22;5256;48.728;9.140;2023-01-25T16:46:34;0.50;99.90
10419;DHT22;5256;48.728;9.140;2023-01-25T16:49:00;0.50;99.90
10419;DHT22;5256;48.728;9.140;2023-01-25T16:51:29;0.60;99.90
10419;DHT22;5256;48.728;9.140;2023-01-25T16:53:56;0.60;99.90
10419;DHT22;5256;48.728;9.140;2023-01-25T16:56:24;0.50;99.90
10419;DHT22;5256;48.728;9.140;2023-01-25T16:58:52;0.40;99.90
10419;DHT22;5256;48.728;9.140;2023-01-25T17:01:20;0.40;99.90
10419;DHT22;5256;48.728;9.140;2023-01-25T17:03:46;0.30;99.90
10419;DHT22;5256;48.728;9.140;2023-01-25T17:06:16;0.30;99.90
10419;DHT22;5256;48.728;9.140;2023-01-25T17:08:43;0.40;99.90
10419;DHT22;5256;48.728;9.140;2023-01-25T17:11:09;0.40;99.90
10419;DHT22;5256;48.728;9.140;2023-01-25T17:13:35;0.40;99.90
10419;DHT22;5256;48.728;9.140;2023-01-25T17:16:00;0.50;99.90
10419;DHT22;5256;48.728;9.140;2023-01-25T17:18:26;0.50;99.90
10419;DHT22;5256;48.728;9.140;2023-01-25T17:21:00;0.40;99.90
10419;DHT22;5256;48.728;9.140;2023-01-25T17:23:26;0.30;99.90
10419;DHT22;5256;48.728;9.140;2023-01-25T17:25:53;0.40;99.90
10419;DHT22;5256;48.728;9.140;2023-01-25T17:28:20;0.40;99.90
10419;DHT22;5256;48.728;9.140;2023-01-25T17:30:45;0.50;99.90
10419;DHT22;5256;48.728;9.140;2023-01-25T17:33:11;0.50;99.90
10419;DHT22;5256;48.728;9.140;2023-01-25T17:35:37;0.40;99.90
10419;DHT22;5256;48.728;9.140;2023-01-25T17:38:03;0.40;99.90
10419;DHT22;5256;48.728;9.140;2023-01-25T17:40:28;0.30;99.90
10419;DHT22;5256;48.728;9.140;2023-01-25T17:42:54;0.30;99.90
10419;DHT22;5256;48.728;9.140;2023-01-25T17:45:20;0.30;99.90
10419;DHT22;5256;48.728;9.140;2023-01-25T17:47:45;0.30;99.90
10419;DHT22;5256;48.728;9.140;2023-01-25T17:50:11;0.40;99.90
10419;DHT22;5256;48.728;9.140;2023-01-25T17:52:36;0.40;99.90
10419;DHT22;5256;48.728;9.140;2023-01-25T17:55:02;0.40;99.90
10419;DHT22;5256;48.728;9.140;2023-01-25T17:57:29;0.50;99.90
10419;DHT22;5256;48.728;9.140;2023-01-25T17:59:55;0.50;99.90
10419;DHT22;5256;48.728;9.140;2023-01-25T18:02:21;0.40;99.90
10419;DHT22;5256;48.728;9.140;2023-01-25T18:04:46;0.50;99.90
10419;DHT22;5256;48.728;9.140;2023-01-25T18:07:12;0.40;99.90